Terminal Aerodrome Forecast
Issued by NWS

Home | Current Version | Previous Version | Graphics & Text | Print | Product List | Glossary Off
Versions: 1 2 3 4 5 6 7 8 9 10 11 12 13 14 15

000
FTUS45 KGGW 232320
TAFSDY
TAF
KSDY 232320Z 2400/2424 31021G32KT P6SM FEW090
     FM240100 32015KT P6SM FEW090
     FM240300 31007KT P6SM FEW250
     FM241400 27006KT P6SM SCT130=

USA.gov is the U.S. government's official web portal to all federal, state and local government web resources and services.